Time;durP1;ratioP1;P1;durP2;ratioP2;P2;SDS_P1;SDS_P2;PMS_P1;PMS_P2;Temp;Humidity;BMP_temperature;BMP_pressure;BME280_temperature;BME280_humidity;BME280_pressure;Samples;Min_cycle;Max_cycle;Signal;HPM_P1;HPM_P2
2023/04/28 00:01:41;;;;;;;33.95;23.35;;;;;;;16.56;43.03;93439.22;4931901;29;20047;-90
2023/04/28 00:04:07;;;;;;;43.22;24.95;;;;;;;16.58;42.74;93438.72;4915421;29;20071;-89
2023/04/28 00:06:32;;;;;;;38.10;24.73;;;;;;;16.58;42.52;93436.00;4932424;29;20039;-90
2023/04/28 00:08:57;;;;;;;35.30;23.42;;;;;;;16.57;43.05;93443.44;4932067;29;20047;-89
2023/04/28 00:11:23;;;;;;;35.55;23.48;;;;;;;16.57;42.93;93446.16;4922468;29;20031;-86
2023/04/28 00:13:48;;;;;;;36.53;23.45;;;;;;;16.57;42.76;93440.69;4927487;29;20449;-87
2023/04/28 00:16:14;;;;;;;35.35;24.75;;;;;;;16.57;43.04;93440.69;4900081;29;20051;-90
2023/04/28 00:18:39;;;;;;;37.47;23.83;;;;;;;16.53;42.95;93434.75;4915769;29;20087;-88
2023/04/28 00:21:05;;;;;;;34.25;22.70;;;;;;;16.57;43.14;93427.06;4931673;29;20035;-86
2023/04/28 00:23:30;;;;;;;34.28;21.98;;;;;;;16.55;42.91;93423.34;4923343;29;20040;-89
2023/04/28 00:25:56;;;;;;;36.55;24.13;;;;;;;16.54;42.71;93438.22;4930518;29;20080;-89
2023/04/28 00:28:21;;;;;;;32.85;22.95;;;;;;;16.57;42.59;93442.69;4948375;29;20379;-88
2023/04/28 00:30:47;;;;;;;40.75;23.75;;;;;;;16.54;42.75;93433.50;4931722;29;20528;-89
2023/04/28 00:33:12;;;;;;;35.13;23.25;;;;;;;16.55;42.77;93437.72;4947504;28;20050;-89
2023/04/28 00:35:38;;;;;;;37.20;22.83;;;;;;;16.52;42.86;93429.78;4922190;29;20056;-90
2023/04/28 00:38:04;;;;;;;36.30;22.95;;;;;;;16.55;42.62;93437.72;4912667;29;20087;-87
2023/04/28 00:40:34;;;;;;;37.47;22.92;;;;;;;16.54;43.08;93425.31;4910959;29;20039;-87
2023/04/28 00:43:00;;;;;;;38.63;23.67;;;;;;;16.54;42.80;93425.31;4931585;29;20044;-91
2023/04/28 00:45:25;;;;;;;36.03;23.73;;;;;;;16.51;43.19;93418.13;4930842;29;20269;-91
2023/04/28 00:47:51;;;;;;;32.15;22.42;;;;;;;16.51;43.02;93428.28;4921274;29;20048;-90
2023/04/28 00:50:16;;;;;;;33.95;23.63;;;;;;;16.51;43.30;93423.59;4917768;29;20051;-90
2023/04/28 00:52:42;;;;;;;33.92;22.80;;;;;;;16.49;42.74;93417.13;4917910;29;20055;-90
2023/04/28 00:55:08;;;;;;;30.98;21.80;;;;;;;16.50;42.66;93427.56;4899669;29;20052;-89
2023/04/28 00:57:33;;;;;;;35.78;23.00;;;;;;;16.50;43.24;93422.09;4933405;29;20035;-86
2023/04/28 00:59:58;;;;;;;36.50;21.95;;;;;;;16.51;42.81;93417.38;4917249;29;20058;-87
2023/04/28 01:02:24;;;;;;;31.92;20.85;;;;;;;16.51;42.79;93420.84;4918664;29;20051;-91
2023/04/28 01:04:50;;;;;;;32.88;21.85;;;;;;;16.52;43.22;93411.44;4934880;29;20551;-90
2023/04/28 01:07:15;;;;;;;34.85;23.38;;;;;;;16.48;43.03;93415.66;4934579;29;20078;-89
2023/04/28 01:09:41;;;;;;;32.67;21.98;;;;;;;16.50;43.30;93418.63;4935404;29;20043;-89
2023/04/28 01:12:06;;;;;;;34.80;22.60;;;;;;;16.49;42.87;93403.50;4926327;29;20054;-86
2023/04/28 01:14:32;;;;;;;34.70;21.02;;;;;;;16.46;43.25;93413.41;4935548;29;20483;-91
2023/04/28 01:16:58;;;;;;;34.83;22.25;;;;;;;16.51;42.83;93409.19;4949001;28;20042;-89
2023/04/28 01:19:23;;;;;;;31.85;22.35;;;;;;;16.50;43.02;93399.53;4933826;29;20039;-86
2023/04/28 01:21:49;;;;;;;32.17;21.45;;;;;;;16.48;43.26;93396.53;4918692;29;20504;-86
2023/04/28 01:24:15;;;;;;;34.55;22.80;;;;;;;16.48;43.37;93393.81;4901231;29;20131;-88
2023/04/28 01:26:40;;;;;;;34.03;21.65;;;;;;;16.48;42.91;93386.38;4934607;29;20465;-90
2023/04/28 01:29:06;;;;;;;32.28;22.65;;;;;;;16.46;43.13;93391.59;4918258;29;20074;-90
2023/04/28 01:31:31;;;;;;;35.17;22.90;;;;;;;16.46;43.15;93375.97;4915587;29;20043;-89
2023/04/28 01:33:57;;;;;;;30.67;21.15;;;;;;;16.50;43.33;93385.88;4930593;29;20078;-89
2023/04/28 01:36:22;;;;;;;34.55;21.35;;;;;;;16.44;42.99;93375.00;4938284;28;20439;-91
2023/04/28 01:38:48;;;;;;;28.73;20.13;;;;;;;16.47;43.18;93384.88;4914310;29;20043;-91
2023/04/28 01:41:15;;;;;;;31.83;20.33;;;;;;;16.48;43.00;93375.47;4927299;29;20035;-91
2023/04/28 01:43:42;;;;;;;31.67;21.02;;;;;;;16.45;42.85;93382.66;4934707;29;20035;-89
2023/04/28 01:46:08;;;;;;;30.88;20.48;;;;;;;16.46;43.09;93380.66;4934045;29;20573;-88
2023/04/28 01:48:33;;;;;;;31.70;21.50;;;;;;;16.51;43.01;93381.91;4905484;29;20043;-91
2023/04/28 01:50:58;;;;;;;31.70;21.35;;;;;;;16.48;43.18;93386.38;4905481;29;20094;-90
2023/04/28 01:53:24;;;;;;;31.67;20.92;;;;;;;16.51;43.14;93387.38;4915002;29;20044;-89
2023/04/28 01:55:50;;;;;;;32.00;19.58;;;;;;;16.50;43.11;93388.59;4943109;29;20405;-90
2023/04/28 01:58:15;;;;;;;30.77;21.17;;;;;;;16.49;43.18;93384.38;4949802;29;20062;-90
2023/04/28 02:00:41;;;;;;;31.55;20.38;;;;;;;16.45;43.24;93385.38;4947690;29;20058;-90
2023/04/28 02:03:06;;;;;;;30.60;20.40;;;;;;;16.49;42.92;93382.41;4949302;28;20047;-89
2023/04/28 02:05:31;;;;;;;28.67;19.88;;;;;;;16.46;43.07;93386.88;4934424;29;20031;-89
2023/04/28 02:07:57;;;;;;;31.08;21.38;;;;;;;16.44;43.37;93375.75;4933952;29;20501;-91
2023/04/28 02:10:22;;;;;;;30.23;20.05;;;;;;;16.46;42.93;93380.66;4933213;29;20051;-91
2023/04/28 02:12:48;;;;;;;31.15;21.25;;;;;;;16.46;43.19;93384.16;4909513;29;20042;-87
2023/04/28 02:15:13;;;;;;;29.10;20.17;;;;;;;16.46;43.34;93383.41;4949655;28;20117;-89
2023/04/28 02:17:39;;;;;;;29.88;19.17;;;;;;;16.45;43.01;93381.94;4933729;29;20039;-89
2023/04/28 02:20:06;;;;;;;30.10;19.35;;;;;;;16.43;43.08;93374.25;4933760;29;20051;-86
2023/04/28 02:22:31;;;;;;;27.88;18.90;;;;;;;16.44;43.35;93377.72;4933595;29;20094;-90
2023/04/28 02:24:57;;;;;;;28.92;20.00;;;;;;;16.43;43.17;93376.22;4907715;29;20047;-87
2023/04/28 02:27:22;;;;;;;28.92;19.65;;;;;;;16.46;43.25;93373.22;4932823;29;20044;-88
2023/04/28 02:29:48;;;;;;;30.73;19.30;;;;;;;16.45;43.26;93387.41;4943013;28;20406;-90
2023/04/28 02:32:13;;;;;;;25.95;18.77;;;;;;;16.43;42.85;93382.44;4948378;29;20059;-87
2023/04/28 02:34:39;;;;;;;34.40;20.50;;;;;;;16.43;43.01;93381.69;4949508;28;20054;-90
2023/04/28 02:37:04;;;;;;;28.80;19.05;;;;;;;16.47;43.41;93382.16;4897501;29;20134;-89
2023/04/28 02:39:32;;;;;;;28.58;20.30;;;;;;;16.41;43.07;93376.00;4898506;29;20048;-91
2023/04/28 02:41:58;;;;;;;26.17;18.67;;;;;;;16.44;43.00;93373.00;4917576;29;20109;-89
2023/04/28 02:44:23;;;;;;;27.70;19.05;;;;;;;16.44;43.12;93366.81;4932838;29;20498;-91
2023/04/28 02:46:49;;;;;;;34.50;19.98;;;;;;;16.43;43.01;93376.22;4932923;29;20047;-88
2023/04/28 02:49:14;;;;;;;25.45;17.15;;;;;;;16.45;43.25;93363.56;4898614;29;20036;-89
2023/04/28 02:51:40;;;;;;;29.63;18.95;;;;;;;16.46;43.07;93362.31;4914781;29;20115;-86
2023/04/28 02:54:05;;;;;;;28.23;18.20;;;;;;;16.45;43.10;93371.75;4910398;29;20043;-88
2023/04/28 02:56:31;;;;;;;30.13;19.05;;;;;;;16.42;43.16;93374.75;4928791;29;20110;-86
2023/04/28 02:58:57;;;;;;;29.05;19.02;;;;;;;16.40;43.01;93374.50;4938480;29;20047;-89
2023/04/28 03:01:23;;;;;;;26.45;17.90;;;;;;;16.43;43.34;93371.53;4929388;29;20409;-90
2023/04/28 03:03:49;;;;;;;28.35;17.75;;;;;;;16.41;43.25;93365.06;4949115;28;20035;-89
2023/04/28 03:06:14;;;;;;;26.73;18.02;;;;;;;16.39;43.39;93373.75;4950018;29;20094;-86
2023/04/28 03:08:40;;;;;;;26.50;18.52;;;;;;;16.40;43.37;93371.78;4933026;29;20401;-87
2023/04/28 03:11:05;;;;;;;26.48;17.60;;;;;;;16.38;43.33;93361.34;4931722;29;20055;-88
2023/04/28 03:13:31;;;;;;;26.27;17.77;;;;;;;16.42;42.85;93359.13;4924322;29;20046;-89
2023/04/28 03:15:56;;;;;;;26.70;18.08;;;;;;;16.39;43.32;93368.31;4933121;29;20047;-89
2023/04/28 03:18:22;;;;;;;24.05;17.38;;;;;;;16.40;42.94;93367.06;4949076;28;20118;-89
2023/04/28 03:20:47;;;;;;;27.40;18.13;;;;;;;16.38;43.27;93352.44;4932862;29;20416;-89
2023/04/28 03:23:13;;;;;;;25.65;17.63;;;;;;;16.42;43.27;93355.66;4931968;29;20042;-90
2023/04/28 03:25:38;;;;;;;26.13;17.08;;;;;;;16.39;43.15;93356.66;4939133;29;20465;-89
2023/04/28 03:28:04;;;;;;;29.33;19.10;;;;;;;16.43;43.27;93352.44;4932026;29;20433;-88
2023/04/28 03:30:30;;;;;;;29.55;18.15;;;;;;;16.40;42.83;93347.22;4949860;29;20105;-90
2023/04/28 03:32:55;;;;;;;28.25;17.27;;;;;;;16.39;43.36;93340.28;4930313;29;20059;-90
2023/04/28 03:35:21;;;;;;;22.27;16.08;;;;;;;16.41;43.33;93348.72;4915585;29;20039;-87
2023/04/28 03:37:47;;;;;;;22.95;16.60;;;;;;;16.36;43.49;93349.44;4916266;29;20043;-87
2023/04/28 03:40:12;;;;;;;23.38;16.77;;;;;;;16.41;43.14;93341.25;4931789;29;20059;-90
2023/04/28 03:42:38;;;;;;;24.20;17.35;;;;;;;16.37;43.10;93337.31;4932226;29;20042;-90
2023/04/28 03:45:03;;;;;;;26.35;17.77;;;;;;;16.36;43.37;93336.56;4915429;29;20066;-88
2023/04/28 03:47:29;;;;;;;26.92;16.52;;;;;;;16.37;43.43;93326.38;4932004;29;20520;-86
2023/04/28 03:49:54;;;;;;;28.05;17.60;;;;;;;16.39;43.43;93335.56;4931537;29;20418;-86
2023/04/28 03:52:20;;;;;;;26.10;17.17;;;;;;;16.34;43.29;93341.03;4942807;29;20051;-90
2023/04/28 03:54:45;;;;;;;24.02;16.27;;;;;;;16.37;43.30;93332.59;4912601;29;20050;-91
2023/04/28 03:57:11;;;;;;;24.13;16.08;;;;;;;16.40;43.04;93339.03;4893550;29;20048;-88
2023/04/28 03:59:36;;;;;;;26.67;17.25;;;;;;;16.36;43.18;93330.34;4892682;29;20467;-91
2023/04/28 04:02:02;;;;;;;24.50;16.70;;;;;;;16.36;43.24;93325.66;4899974;29;20094;-89
2023/04/28 04:04:27;;;;;;;27.48;17.20;;;;;;;16.35;43.39;93326.88;4948122;29;20051;-86
2023/04/28 04:06:53;;;;;;;19.58;14.70;;;;;;;16.40;43.21;93319.94;4949853;29;20240;-90
2023/04/28 04:09:18;;;;;;;24.50;17.08;;;;;;;16.36;43.28;93319.44;4931012;29;20039;-90
2023/04/28 04:11:44;;;;;;;24.08;16.25;;;;;;;16.36;43.08;93327.63;4932173;29;20082;-87
2023/04/28 04:14:09;;;;;;;22.15;16.20;;;;;;;16.38;43.01;93327.88;4922751;29;20047;-90
2023/04/28 04:16:35;;;;;;;21.90;14.93;;;;;;;16.35;43.40;93324.16;4932249;29;20039;-90
2023/04/28 04:19:01;;;;;;;23.48;15.65;;;;;;;16.37;43.23;93318.19;4931739;29;20425;-89
2023/04/28 04:21:26;;;;;;;25.67;16.35;;;;;;;16.34;43.50;93325.41;4948703;29;20051;-89
2023/04/28 04:23:52;;;;;;;25.48;15.98;;;;;;;16.35;43.31;93326.13;4930902;29;20095;-87
2023/04/28 04:26:17;;;;;;;26.48;16.63;;;;;;;16.41;43.16;93327.63;4912930;29;20288;-91
2023/04/28 04:28:43;;;;;;;24.70;16.60;;;;;;;16.39;43.30;93318.44;4902740;29;20054;-89
2023/04/28 04:31:08;;;;;;;23.75;15.88;;;;;;;16.38;43.48;93325.16;4915954;28;20047;-90
2023/04/28 04:33:34;;;;;;;28.30;18.38;;;;;;;16.38;43.44;93331.34;4935513;29;20486;-90
2023/04/28 04:35:59;;;;;;;28.15;17.17;;;;;;;16.37;43.55;93327.13;4935687;29;20047;-89
2023/04/28 04:38:25;;;;;;;24.42;17.17;;;;;;;16.36;43.31;93330.34;4915852;29;20044;-90
2023/04/28 04:40:50;;;;;;;24.95;16.67;;;;;;;16.40;43.26;93328.13;4930928;29;20113;-89
2023/04/28 04:43:15;;;;;;;22.80;16.27;;;;;;;16.42;43.20;93328.38;4934890;29;20046;-89
2023/04/28 04:45:41;;;;;;;23.38;16.35;;;;;;;16.39;43.47;93330.09;4906498;29;20040;-90
2023/04/28 04:48:06;;;;;;;21.73;15.13;;;;;;;16.45;43.37;93330.09;4901713;29;20052;-90
2023/04/28 04:50:32;;;;;;;20.63;14.77;;;;;;;16.46;43.45;93321.38;4898021;29;20506;-90
2023/04/28 04:52:57;;;;;;;18.85;13.98;;;;;;;16.50;43.48;93332.06;4938462;29;20059;-86
2023/04/28 04:55:22;;;;;;;20.45;13.93;;;;;;;16.50;43.42;93317.66;4894423;29;20063;-85
2023/04/28 04:57:49;;;;;;;21.40;14.20;;;;;;;16.54;43.01;93316.16;4915985;29;20028;-87
2023/04/28 05:00:15;;;;;;;23.25;14.85;;;;;;;16.48;42.98;93318.16;4885550;29;20410;-89
2023/04/28 05:02:41;;;;;;;19.13;13.80;;;;;;;16.49;43.16;93313.44;4905414;29;20040;-92
2023/04/28 05:05:08;;;;;;;22.55;16.10;;;;;;;16.48;43.22;93309.22;4930876;29;20071;-90
2023/04/28 05:07:33;;;;;;;20.10;13.65;;;;;;;16.51;43.00;93308.25;4920929;29;20610;-91
2023/04/28 05:09:59;;;;;;;17.88;12.18;;;;;;;16.52;43.07;93309.72;4949976;29;20047;-87
2023/04/28 05:12:24;;;;;;;21.02;13.82;;;;;;;16.52;43.13;93315.19;4917018;29;20440;-91
2023/04/28 05:14:50;;;;;;;23.38;12.75;;;;;;;16.54;43.20;93315.44;4943815;28;20043;-86
2023/04/28 05:17:15;;;;;;;20.48;13.50;;;;;;;16.57;42.73;93320.63;4918895;29;20502;-89
2023/04/28 05:19:41;;;;;;;16.90;11.70;;;;;;;16.61;43.16;93325.84;4925767;29;20035;-91
2023/04/28 05:22:06;;;;;;;17.95;12.50;;;;;;;16.58;42.72;93318.66;4926789;29;20481;-90
2023/04/28 05:24:32;;;;;;;18.48;11.70;;;;;;;16.58;43.25;93316.66;4917489;29;20081;-91
2023/04/28 05:26:57;;;;;;;15.57;11.18;;;;;;;16.60;42.63;93321.63;4927299;29;20090;-87
2023/04/28 05:29:23;;;;;;;15.80;12.20;;;;;;;16.68;42.51;93320.59;4918902;29;20548;-86
2023/04/28 05:31:48;;;;;;;17.23;12.25;;;;;;;16.63;42.93;93329.56;4919301;29;20051;-88
2023/04/28 05:34:13;;;;;;;16.02;11.20;;;;;;;16.66;42.58;93333.28;4949564;29;20497;-87
2023/04/28 05:36:39;;;;;;;16.42;10.85;;;;;;;16.76;42.90;93331.75;4948873;28;20090;-86
2023/04/28 05:39:04;;;;;;;12.10;9.65;;;;;;;16.70;42.80;93331.03;4915385;29;20036;-88
2023/04/28 05:41:30;;;;;;;16.40;11.75;;;;;;;16.75;42.61;93324.81;4915579;29;20066;-89
2023/04/28 05:43:55;;;;;;;15.30;9.75;;;;;;;16.74;42.68;93326.81;4899710;29;20091;-88
2023/04/28 05:46:21;;;;;;;15.40;9.35;;;;;;;16.74;42.58;93313.16;4931818;29;20064;-87
2023/04/28 05:48:46;;;;;;;17.17;12.10;;;;;;;16.79;42.34;93317.84;4928185;29;20066;-89
2023/04/28 05:51:12;;;;;;;21.25;13.82;;;;;;;16.79;42.93;93315.13;4933686;29;20043;-88
2023/04/28 05:53:37;;;;;;;27.23;17.63;;;;;;;16.77;42.43;93317.59;4951884;29;20035;-87
2023/04/28 05:56:02;;;;;;;37.55;20.67;;;;;;;16.77;42.59;93314.88;4885309;29;20083;-89
2023/04/28 05:58:28;;;;;;;35.03;21.95;;;;;;;16.79;42.91;93309.66;4934726;29;20397;-86
2023/04/28 06:00:54;;;;;;;36.25;21.17;;;;;;;16.83;42.76;93305.94;4931514;29;20094;-85
2023/04/28 06:03:19;;;;;;;32.80;22.05;;;;;;;16.84;42.66;93296.50;4950001;28;20031;-88
2023/04/28 06:05:44;;;;;;;33.97;22.02;;;;;;;16.87;42.36;93290.78;4918386;29;20039;-85
2023/04/28 06:08:10;;;;;;;37.53;21.88;;;;;;;16.87;42.80;93290.03;4933251;29;20043;-87
2023/04/28 06:10:35;;;;;;;35.45;22.55;;;;;;;16.90;42.51;93297.94;4949759;28;20039;-88
2023/04/28 06:13:03;;;;;;;32.97;20.70;;;;;;;16.90;42.52;93297.94;4946662;28;20048;-88
2023/04/28 06:15:29;;;;;;;30.80;20.33;;;;;;;16.94;42.39;93289.50;4943214;28;20039;-90
2023/04/28 06:17:54;;;;;;;31.42;20.42;;;;;;;16.98;42.62;93284.50;4933984;29;20050;-88
2023/04/28 06:20:20;;;;;;;33.55;21.77;;;;;;;16.92;42.66;93286.50;4932879;29;20043;-88
2023/04/28 06:22:45;;;;;;;29.48;20.83;;;;;;;16.93;42.63;93277.81;4917729;29;20043;-88
2023/04/28 06:25:11;;;;;;;35.20;21.08;;;;;;;16.97;42.57;93281.03;4929045;29;20577;-87
2023/04/28 06:27:36;;;;;;;36.45;19.35;;;;;;;16.99;42.40;93286.75;4895773;29;20490;-90
2023/04/28 06:30:02;;;;;;;56.70;38.00;;;;;;;16.96;42.58;93282.28;4920200;29;20043;-86
2023/04/28 06:32:27;;;;;;;42.00;22.83;;;;;;;17.03;42.78;93273.56;4917038;29;20462;-85
2023/04/28 06:34:53;;;;;;;54.95;28.05;;;;;;;16.97;42.52;93269.38;4925652;29;20103;-85
2023/04/28 06:37:18;;;;;;;40.83;22.73;;;;;;;16.97;42.69;93275.56;4934737;29;20055;-85
2023/04/28 06:39:43;;;;;;;46.80;23.83;;;;;;;17.00;42.63;93279.28;4912085;29;20079;-87
2023/04/28 06:42:09;;;;;;;37.35;21.02;;;;;;;16.99;42.43;93278.53;4894932;29;20045;-86
2023/04/28 06:44:34;;;;;;;38.22;21.35;;;;;;;17.03;42.72;93281.75;4932518;29;20047;-88
2023/04/28 06:47:00;;;;;;;39.80;22.15;;;;;;;16.98;42.83;93276.31;4921538;29;20410;-90
2023/04/28 06:49:25;;;;;;;42.78;22.77;;;;;;;16.95;42.80;93285.50;4915226;29;20510;-90
2023/04/28 06:51:51;;;;;;;34.67;21.55;;;;;;;16.98;42.56;93282.53;4913829;29;20054;-87
2023/04/28 06:54:17;;;;;;;30.50;15.77;;;;;;;16.92;41.77;93290.00;4911818;29;20090;-87
2023/04/28 06:56:42;;;;;;;24.05;13.35;;;;;;;16.93;40.56;93288.00;4930142;29;20048;-88
2023/04/28 06:59:07;;;;;;;19.27;11.88;;;;;;;16.91;40.70;93296.69;4898494;29;20063;-91
2023/04/28 07:01:33;;;;;;;24.08;11.70;;;;;;;16.89;40.38;93293.00;4918286;29;20044;-88
2023/04/28 07:03:58;;;;;;;15.68;9.68;;;;;;;16.81;40.21;93290.06;4898446;29;20126;-88
2023/04/28 07:06:26;;;;;;;20.83;11.10;;;;;;;16.92;40.59;93289.25;4902652;29;20113;-85
2023/04/28 07:08:51;;;;;;;16.92;10.02;;;;;;;16.96;40.26;93289.72;4894622;29;20464;-90
2023/04/28 07:11:17;;;;;;;15.88;9.43;;;;;;;16.94;40.62;93284.78;4895945;29;20095;-90
2023/04/28 07:13:42;;;;;;;28.33;13.82;;;;;;;16.93;40.67;93296.19;4910697;29;20098;-88
2023/04/28 07:16:09;;;;;;;31.27;16.27;;;;;;;16.93;40.66;93288.75;4929258;29;20055;-88
2023/04/28 07:18:34;;;;;;;27.40;15.80;;;;;;;16.93;40.43;93283.28;4917657;29;20059;-91
2023/04/28 07:21:00;;;;;;;34.63;18.15;;;;;;;16.93;40.92;93280.56;4929783;29;20046;-86
2023/04/28 07:23:25;;;;;;;46.65;22.60;;;;;;;16.96;41.14;93278.81;4933143;29;20057;-89
2023/04/28 07:25:51;;;;;;;36.35;21.08;;;;;;;16.98;40.85;93271.59;4909198;29;20067;-89
2023/04/28 07:28:16;;;;;;;41.83;22.33;;;;;;;16.97;41.24;93280.28;4939375;29;20372;-91
2023/04/28 07:30:41;;;;;;;51.38;24.30;;;;;;;16.97;41.71;93272.84;4949953;28;20039;-89
2023/04/28 07:33:07;;;;;;;44.15;22.85;;;;;;;16.99;41.87;93269.59;4933132;29;20039;-91
2023/04/28 07:35:32;;;;;;;43.72;20.65;;;;;;;17.05;41.99;93271.06;4932674;29;20341;-87
2023/04/28 07:37:58;;;;;;;37.22;21.25;;;;;;;17.09;42.24;93262.63;4926835;29;20043;-88
2023/04/28 07:40:24;;;;;;;45.38;20.50;;;;;;;17.05;42.14;93270.31;4895008;29;20354;-88
2023/04/28 07:42:50;;;;;;;51.58;22.48;;;;;;;17.05;42.40;93267.59;4917582;29;20044;-89
2023/04/28 07:45:15;;;;;;;53.88;22.67;;;;;;;17.09;42.43;93262.63;4904588;29;20058;-91
2023/04/28 07:47:41;;;;;;;46.15;24.15;;;;;;;17.07;42.27;93251.44;4933562;29;20039;-87
2023/04/28 07:50:07;;;;;;;49.10;25.25;;;;;;;17.07;42.22;93256.91;4931473;29;20039;-89
2023/04/28 07:52:32;;;;;;;55.20;29.48;;;;;;;17.12;42.33;93259.59;4909043;29;20568;-88
2023/04/28 07:54:58;;;;;;;58.92;31.17;;;;;;;17.10;42.28;93266.84;4908147;29;20059;-90
2023/04/28 07:57:23;;;;;;;61.17;31.15;;;;;;;17.10;42.35;93261.38;4885284;28;20457;-89
2023/04/28 07:59:49;;;;;;;65.25;35.25;;;;;;;17.14;42.52;93264.56;4898308;29;20090;-87
2023/04/28 08:02:14;;;;;;;68.30;38.33;;;;;;;17.11;42.17;93254.63;4927538;29;20678;-87
2023/04/28 08:04:40;;;;;;;66.82;34.65;;;;;;;17.18;42.50;93253.34;4932832;28;20031;-89
2023/04/28 08:07:05;;;;;;;69.07;35.65;;;;;;;17.12;42.51;93245.19;4916159;29;20051;-88
2023/04/28 08:09:31;;;;;;;77.32;37.97;;;;;;;17.14;42.61;93254.38;4918119;29;20068;-88
2023/04/28 08:11:57;;;;;;;71.97;35.72;;;;;;;17.12;42.35;93248.66;4882886;29;20028;-89
2023/04/28 08:14:23;;;;;;;60.05;35.10;;;;;;;17.18;42.52;93256.09;4908845;29;20548;-88
2023/04/28 08:16:48;;;;;;;67.97;34.00;;;;;;;17.12;42.92;93248.66;4932345;29;20039;-87
2023/04/28 08:19:14;;;;;;;64.20;34.15;;;;;;;17.12;42.56;93253.38;4916433;29;20036;-87
2023/04/28 08:21:39;;;;;;;63.60;37.60;;;;;;;17.18;42.66;93248.63;4932770;29;20373;-88
2023/04/28 08:24:05;;;;;;;69.97;36.42;;;;;;;17.14;42.62;93243.44;4916526;29;20043;-91
2023/04/28 08:26:31;;;;;;;62.90;37.53;;;;;;;17.12;42.33;93248.66;4908807;29;20039;-90
2023/04/28 08:28:56;;;;;;;71.90;37.35;;;;;;;17.14;42.96;93245.44;4897761;29;20131;-87
2023/04/28 08:31:22;;;;;;;65.72;35.10;;;;;;;17.11;42.43;93249.91;4915824;29;21022;-91
2023/04/28 08:33:50;;;;;;;60.47;35.75;;;;;;;17.16;42.53;93242.19;4939708;28;20054;-90
2023/04/28 08:36:16;;;;;;;62.58;33.65;;;;;;;17.17;42.66;93249.13;4926962;29;20050;-87
2023/04/28 08:38:42;;;;;;;66.72;33.95;;;;;;;17.19;42.40;93236.47;4933220;29;20043;-89
2023/04/28 08:41:07;;;;;;;68.93;35.90;;;;;;;17.20;42.09;93237.22;4921128;29;20059;-90
2023/04/28 08:43:38;;;;;;;51.25;30.13;;;;;;;17.18;42.63;93234.25;4894952;29;20058;-90
2023/04/28 08:46:05;;;;;;;68.10;39.65;;;;;;;17.14;42.46;93240.72;4905776;29;20112;-89
2023/04/28 08:48:31;;;;;;;63.35;33.58;;;;;;;17.21;42.58;93230.50;4910413;29;20054;-88
2023/04/28 08:50:57;;;;;;;71.18;41.05;;;;;;;17.14;42.46;93229.03;4948402;28;20441;-87
2023/04/28 08:53:24;;;;;;;57.08;31.27;;;;;;;17.18;42.98;93228.78;4923727;29;20417;-89
2023/04/28 08:55:56;;;;;;;57.75;32.42;;;;;;;17.19;42.98;93222.06;4915504;29;20075;-92
2023/04/28 08:58:23;;;;;;;52.25;29.33;;;;;;;17.20;42.69;93226.28;4928775;28;20043;-89
2023/04/28 09:00:49;;;;;;;59.35;31.55;;;;;;;17.21;42.65;93222.31;4914189;29;20075;-91
2023/04/28 09:03:14;;;;;;;53.92;31.75;;;;;;;17.23;42.48;93217.06;4891262;29;20058;-91
2023/04/28 09:05:39;;;;;;;56.97;33.63;;;;;;;17.25;42.67;93204.41;4915388;29;20044;-89
2023/04/28 09:08:05;;;;;;;60.67;33.10;;;;;;;17.19;42.44;93219.34;4905126;29;20048;-89
2023/04/28 09:10:30;;;;;;;55.25;32.10;;;;;;;17.19;42.44;93211.13;4927270;28;20042;-89
2023/04/28 09:12:57;;;;;;;51.85;32.08;;;;;;;17.23;42.80;93211.63;4916250;29;20036;-91
2023/04/28 09:15:41;;;;;;;52.25;30.40;;;;;;;17.23;42.62;93222.53;4913943;29;20069;-92
2023/04/28 09:18:06;;;;;;;48.25;31.23;;;;;;;17.20;42.64;93218.81;4933603;29;20046;-90
2023/04/28 09:20:33;;;;;;;46.72;29.50;;;;;;;17.21;43.02;93222.31;4951585;28;20047;-89
2023/04/28 09:23:16;;;;;;;50.00;31.17;;;;;;;17.21;42.42;93217.56;4920108;29;20429;-87
2023/04/28 09:25:55;;;;;;;45.83;28.50;;;;;;;17.23;42.48;93228.00;4919090;29;20047;-90
2023/04/28 09:28:20;;;;;;;42.08;25.85;;;;;;;17.23;42.56;93223.28;4918626;28;20051;-89
2023/04/28 09:30:46;;;;;;;47.80;27.88;;;;;;;17.21;42.83;93222.31;4919815;29;20401;-91
2023/04/28 09:33:12;;;;;;;48.63;29.83;;;;;;;17.24;42.84;93224.03;4917561;28;20043;-90
2023/04/28 09:35:47;;;;;;;45.15;27.30;;;;;;;17.25;42.48;93220.78;4902570;29;20829;-89
2023/04/28 09:38:12;;;;;;;42.53;26.48;;;;;;;17.22;42.71;93221.78;4904331;29;20043;-90
2023/04/28 09:40:59;;;;;;;36.75;23.67;;;;;;;17.22;42.59;93215.59;4935130;29;20046;-91
2023/04/28 09:43:29;;;;;;;39.92;26.25;;;;;;;17.24;42.80;93215.81;4934619;28;20528;-86
2023/04/28 09:45:55;;;;;;;39.70;25.42;;;;;;;17.21;42.51;93209.38;4928912;29;20143;-86
2023/04/28 09:48:35;;;;;;;37.38;23.50;;;;;;;17.21;42.68;93216.84;4909661;29;20070;-91
2023/04/28 09:51:04;;;;;;;35.50;20.83;;;;;;;17.23;41.75;93208.88;4915531;29;20063;-90
2023/04/28 09:53:30;;;;;;;39.25;21.67;;;;;;;17.16;41.98;93212.16;4902464;29;20055;-87
2023/04/28 09:55:57;;;;;;;30.52;18.88;;;;;;;17.23;42.35;93211.63;4887048;29;20028;-89
2023/04/28 09:58:23;;;;;;;31.83;21.27;;;;;;;17.20;42.61;93205.16;4922770;29;20047;-86
2023/04/28 10:00:52;;;;;;;31.50;21.15;;;;;;;17.18;42.24;93207.66;4935294;29;20051;-84
2023/04/28 10:03:20;;;;;;;34.10;22.70;;;;;;;17.18;42.73;93198.72;4934013;29;20074;-85
2023/04/28 10:05:49;;;;;;;36.08;22.23;;;;;;;17.16;42.28;93201.97;4934469;29;20494;-85
2023/04/28 10:08:15;;;;;;;33.13;20.45;;;;;;;17.20;43.08;93205.16;4918273;29;20047;-89
2023/04/28 10:10:41;;;;;;;31.52;19.67;;;;;;;17.21;43.01;93205.91;4910662;29;20086;-88
2023/04/28 10:13:07;;;;;;;37.58;23.10;;;;;;;17.22;42.59;93201.94;4910777;29;20052;-88
2023/04/28 10:15:32;;;;;;;32.58;21.58;;;;;;;17.18;42.74;93193.25;4934982;29;20027;-89
2023/04/28 10:17:58;;;;;;;31.02;19.23;;;;;;;17.25;42.77;93198.19;4935702;29;20053;-90
2023/04/28 10:20:25;;;;;;;29.92;19.25;;;;;;;17.17;42.80;93187.06;4934477;29;20039;-88
2023/04/28 10:23:16;;;;;;;32.72;19.23;;;;;;;17.19;42.52;93183.81;4924732;29;20383;-91
2023/04/28 10:25:41;;;;;;;33.50;21.17;;;;;;;17.25;42.51;93184.53;4950826;29;20036;-87
2023/04/28 10:28:07;;;;;;;39.58;21.25;;;;;;;17.21;42.69;93184.81;4918597;29;20054;-91
2023/04/28 10:30:33;;;;;;;30.65;17.73;;;;;;;17.21;43.03;93175.88;4933898;29;20074;-86
2023/04/28 10:33:21;;;;;;;33.70;18.92;;;;;;;17.15;42.60;93175.91;4934824;29;20404;-90
2023/04/28 10:35:47;;;;;;;28.60;17.65;;;;;;;17.18;43.12;93165.94;4915650;29;20040;-88
2023/04/28 10:38:13;;;;;;;31.00;18.23;;;;;;;17.21;43.10;93159.47;4930885;29;20050;-88
2023/04/28 10:40:43;;;;;;;27.02;17.50;;;;;;;17.16;42.87;93168.44;4933857;29;20134;-88
2023/04/28 10:43:17;;;;;;;39.60;20.98;;;;;;;17.22;42.88;93160.97;4934347;29;20043;-87
2023/04/28 10:45:54;;;;;;;60.40;24.10;;;;;;;17.14;42.79;93160.75;4931792;29;20063;-88
2023/04/28 10:48:22;;;;;;;45.55;19.15;;;;;;;17.17;42.84;93161.72;4945174;29;20039;-87
2023/04/28 10:51:13;;;;;;;28.77;17.40;;;;;;;17.14;42.63;93169.69;4934205;29;20082;-85
2023/04/28 10:53:44;;;;;;;27.55;18.10;;;;;;;17.16;42.61;93158.25;4902747;29;20059;-90
2023/04/28 10:56:18;;;;;;;26.65;17.25;;;;;;;17.19;42.61;93151.03;4931399;29;20050;-87
2023/04/28 10:58:45;;;;;;;30.77;18.52;;;;;;;17.22;42.88;93144.56;4905784;29;20046;-90
2023/04/28 11:01:29;;;;;;;28.92;16.88;;;;;;;17.17;42.63;93153.53;4896730;29;20042;-87
2023/04/28 11:03:59;;;;;;;30.00;18.08;;;;;;;17.16;42.80;93152.06;4911095;29;20051;-88
2023/04/28 11:06:33;;;;;;;42.75;18.95;;;;;;;17.14;43.47;93156.03;4917097;29;20046;-87
2023/04/28 11:09:13;;;;;;;49.38;19.23;;;;;;;17.18;42.85;93155.75;4950603;29;20057;-90
2023/04/28 11:12:04;;;;;;;48.80;21.83;;;;;;;17.11;42.99;93154.31;4925215;29;20039;-88
2023/04/28 11:14:30;;;;;;;36.00;19.55;;;;;;;17.13;42.86;93164.75;4933100;29;20043;-86